Royal Princess — ZCDV2 — position and weather

sailwx.info

Track history (hours):
 
Tides and Currents Weather Stations Pressure Air Temp Water Temp Dewpoint Dewpoint Depression Visibility Wind Speed Wind Dir Waves Ship Positions

Royal Princess

Last reported at 2018-Mar-11 02:00 UTC. Time now 2018-Apr-22 12:08 UTC.
Position N 18°13' W 063°31'.
Warning: this ship's position is 42 days out of date.

Type: Passenger vessel. MMSI: 310530000.

Date/timePositionNaut miles runAvg speedWind from/ knotsBaromVisibWave heightAir tempDewpointWater temp
2018-Mar-11 02:00N 18°13' W 063°31'1017.0
2018-Mar-11 01:25N 18°06' W 063°24'717.1
2018-Mar-11 01:00N 18°01' W 063°18'1117.2
2018-Mar-11 00:24N 17°54' W 063°10'717.1
2018-Mar-10 23:58N 17°50' W 063°04'917.1
2018-Mar-10 23:25N 17°43' W 062°57'2916.8
2018-Mar-10 21:42N 17°23' W 062°36'416.9
2018-Mar-10 21:28N 17°20' W 062°33'817.0
2018-Mar-10 21:00N 17°15' W 062°27'917.0
2018-Mar-10 20:30N 17°09' W 062°20'917.2
2018-Mar-10 20:01N 17°03' W 062°14'917.2
2018-Mar-10 19:30N 16°57' W 062°07'816.2
2018-Mar-10 19:00N 16°51' W 062°02'917.2
2018-Mar-10 18:31N 16°42' W 062°02'816.9
2018-Mar-10 18:01N 16°34' W 062°02'816.3
2018-Mar-10 17:30N 16°25' W 062°02'816.4
2018-Mar-10 17:00N 16°17' W 062°02'816.4
2018-Mar-10 16:30N 16°09' W 062°02'9316.4
2018-Mar-10 10:49N 14°41' W 061°30'616.9
2018-Mar-10 10:29N 14°36' W 061°28'  
2018-Mar-05 19:41N 14°26' W 062°29'2510.6
2018-Mar-05 17:19N 14°38' W 062°07'310.2
2018-Mar-05 17:00N 14°40' W 062°04'36 8.4
2018-Mar-05 12:47N 15°07' W 061°39'1710.6
2018-Mar-05 11:10N 15°22' W 061°48'210.7
2018-Mar-05 10:59N 15°23' W 061°49'710.8
2018-Mar-05 10:20N 15°29' W 061°53'410.8
2018-Mar-05 10:00N 15°32' W 061°55'810.7
2018-Mar-05 09:14N 15°40' W 061°59'310.8
2018-Mar-05 08:59N 15°42' W 062°00'2310.0
2018-Mar-05 06:42N 16°02' W 062°12'2 9.9
2018-Mar-05 06:29N 16°04' W 062°13'5 9.8
2018-Mar-05 05:57N 16°08' W 062°16'5 9.4
2018-Mar-05 05:28N 16°12' W 062°19'4 9.1
2018-Mar-05 05:00N 16°15' W 062°22'5 9.4
2018-Mar-05 04:31N 16°18' W 062°25'510.2
2018-Mar-05 04:00N 16°23' W 062°25'5 9.9
2018-Mar-05 03:30N 16°28' W 062°27'510.0
2018-Mar-05 03:00N 16°32' W 062°30'510.0
2018-Mar-05 02:30N 16°36' W 062°33'510.5
2018-Mar-05 02:01N 16°41' W 062°35'27 9.8
2018-Mar-04 23:16N 17°07' W 062°43'10 8.3
2018-Mar-04 22:04N 17°17' W 062°43'1 0.1
2018-Mar-04 10:23N 17°17' W 062°43'1 3.2
2018-Mar-04 10:00N 17°16' W 062°43'6 9.6
2018-Mar-04 09:21N 17°10' W 062°43'10 8.8
2018-Mar-04 08:15N 17°00' W 062°42'2 8.8
2018-Mar-04 08:00N 16°60' W 062°40'5 9.3
2018-Mar-04 07:30N 17°00' W 062°35'4 8.8
2018-Mar-04 07:00N 17°00' W 062°31'4 8.6
2018-Mar-04 06:30N 17°00' W 062°26'4 9.0
2018-Mar-04 06:00N 17°04' W 062°24'4 8.9
2018-Mar-04 05:30N 17°08' W 062°21'510.0
2018-Mar-04 05:00N 17°12' W 062°18'5 9.2
2018-Mar-04 04:30N 17°16' W 062°16'4 8.2
2018-Mar-04 04:00N 17°16' W 062°11'5 9.3
2018-Mar-04 03:30N 17°14' W 062°07'5 9.4
2018-Mar-04 03:00N 17°12' W 062°02'5 9.5
2018-Mar-04 02:30N 17°10' W 061°58'5 9.6
2018-Mar-04 02:00N 17°08' W 061°53'2 4.6
2018-Mar-04 01:30N 17°07' W 061°51'0 0.3
2018-Mar-04 00:58N 17°07' W 061°51'0 0.0
2018-Mar-04 00:28N 17°07' W 061°51'0 0.0
2018-Mar-03 23:58N 17°07' W 061°51'0 0.0
2018-Mar-03 23:28N 17°07' W 061°51'0 0.0
2018-Mar-03 22:58N 17°07' W 061°51'0 0.0
2018-Mar-03 22:28N 17°07' W 061°51'0 0.0
2018-Mar-03 21:58N 17°07' W 061°51'0 0.0
2018-Mar-03 21:28N 17°07' W 061°51'0 0.0
2018-Mar-03 20:58N 17°07' W 061°51'0 0.0
2018-Mar-03 20:28N 17°07' W 061°51'0 0.0
2018-Mar-03 19:58N 17°07' W 061°51'0 0.0
2018-Mar-03 19:28N 17°07' W 061°51'0 0.0
2018-Mar-03 18:58N 17°07' W 061°51'0 0.0
2018-Mar-03 18:28N 17°07' W 061°51'0 0.0
2018-Mar-03 17:58N 17°07' W 061°51'0 0.0
2018-Mar-03 17:28N 17°07' W 061°51'0 0.0
2018-Mar-03 16:58N 17°07' W 061°51'0 0.0
2018-Mar-03 16:28N 17°07' W 061°51'0 0.0
2018-Mar-03 15:58N 17°07' W 061°51'0 0.0
2018-Mar-03 15:28N 17°07' W 061°51'0 0.0
2018-Mar-03 14:58N 17°07' W 061°51'0 0.0
2018-Mar-03 14:28N 17°07' W 061°51'0 0.0
2018-Mar-03 13:58N 17°07' W 061°51'0 0.0
2018-Mar-03 13:10N 17°07' W 061°51'0 0.0
2018-Mar-03 12:52N 17°07' W 061°51'0 0.0
2018-Mar-03 12:22N 17°07' W 061°51'0 0.0
2018-Mar-03 11:34N 17°07' W 061°51'0 0.0
2018-Mar-03 11:28N 17°07' W 061°51'0 0.0
2018-Mar-03 10:44N 17°07' W 061°51'11 7.3
2018-Mar-03 09:12N 17°12' W 062°02'2 9.8
2018-Mar-03 09:00N 17°13' W 062°03'510.1
2018-Mar-03 08:30N 17°15' W 062°08'510.2
2018-Mar-03 08:00N 17°17' W 062°13'510.4
2018-Mar-03 07:30N 17°19' W 062°18'611.1
2018-Mar-03 07:00N 17°21' W 062°23'510.8
2018-Mar-03 06:30N 17°24' W 062°28'510.4
2018-Mar-03 05:58N 17°26' W 062°33'11 9.6
2018-Mar-03 04:51N 17°31' W 062°44'9 9.8
2018-Mar-03 03:58N 17°34' W 062°52'4 9.2
2018-Mar-03 03:29N 17°36' W 062°56'5 9.4
2018-Mar-03 03:00N 17°38' W 063°00'5 6.7
2018-Mar-03 02:15N 17°36' W 063°05'111 7.7
2018-Mar-02 11:53N 15°46' W 063°09'16 9.0
2018-Mar-02 10:08N 15°45' W 062°53'1 9.1
2018-Mar-02 10:00N 15°45' W 062°52'5 9.1
2018-Mar-02 09:29N 15°45' W 062°47'6 9.2
2018-Mar-02 08:51N 15°46' W 062°41'50 9.1
2018-Mar-02 03:23N 15°46' W 061°49'6 9.7
2018-Mar-02 02:47N 15°46' W 061°43'4 9.2
2018-Mar-02 02:24N 15°45' W 061°39'3 8.9
2018-Mar-02 02:00N 15°45' W 061°36'12 7.2
2018-Mar-02 00:23N 15°56' W 061°30'410.1
2018-Mar-02 00:00N 15°60' W 061°30'5 9.9
2018-Mar-01 23:30N 16°04' W 061°30'5 9.7
2018-Mar-01 23:00N 16°09' W 061°30'4 8.0
2018-Mar-01 22:30N 16°13' W 061°32'1 0.1
2018-Mar-01 12:09N 16°14' W 061°32'0 0.0
2018-Mar-01 11:58N 16°14' W 061°32'0 1.1
2018-Mar-01 11:30N 16°14' W 061°32'3 7.0
2018-Mar-01 11:00N 16°11' W 061°31'27 9.9
2018-Mar-01 08:14N 15°43' W 061°34'510.5
2018-Mar-01 07:45N 15°41' W 061°38'3 9.4
2018-Mar-01 07:23N 15°39' W 061°41'  
Track history (hours):
 
Tides and Currents Weather Stations Pressure Air Temp Water Temp Dewpoint Dewpoint Depression Visibility Wind Speed Wind Dir Waves Ship Positions

Royal Princess

Last reported at 2018-Mar-11 02:00 UTC. Time now 2018-Apr-22 12:08 UTC.
Position N 18°13' W 063°31'.
Warning: this ship's position is 42 days out of date.

Type: Passenger vessel. MMSI: 310530000.

Date/timePositionNaut miles runAvg speedWind from/ knotsBaromVisibWave heightAir tempDewpointWater temp
2018-Mar-11 02:00N 18°13' W 063°31'1017.0
2018-Mar-11 01:25N 18°06' W 063°24'717.1
2018-Mar-11 01:00N 18°01' W 063°18'1117.2
2018-Mar-11 00:24N 17°54' W 063°10'717.1
2018-Mar-10 23:58N 17°50' W 063°04'917.1
2018-Mar-10 23:25N 17°43' W 062°57'2916.8
2018-Mar-10 21:42N 17°23' W 062°36'416.9
2018-Mar-10 21:28N 17°20' W 062°33'817.0
2018-Mar-10 21:00N 17°15' W 062°27'917.0
2018-Mar-10 20:30N 17°09' W 062°20'917.2
2018-Mar-10 20:01N 17°03' W 062°14'917.2
2018-Mar-10 19:30N 16°57' W 062°07'816.2
2018-Mar-10 19:00N 16°51' W 062°02'917.2
2018-Mar-10 18:31N 16°42' W 062°02'816.9
2018-Mar-10 18:01N 16°34' W 062°02'816.3
2018-Mar-10 17:30N 16°25' W 062°02'816.4
2018-Mar-10 17:00N 16°17' W 062°02'816.4
2018-Mar-10 16:30N 16°09' W 062°02'9316.4
2018-Mar-10 10:49N 14°41' W 061°30'616.9
2018-Mar-10 10:29N 14°36' W 061°28'  
2018-Mar-05 19:41N 14°26' W 062°29'2510.6
2018-Mar-05 17:19N 14°38' W 062°07'310.2
2018-Mar-05 17:00N 14°40' W 062°04'36 8.4
2018-Mar-05 12:47N 15°07' W 061°39'1710.6
2018-Mar-05 11:10N 15°22' W 061°48'210.7
2018-Mar-05 10:59N 15°23' W 061°49'710.8
2018-Mar-05 10:20N 15°29' W 061°53'410.8
2018-Mar-05 10:00N 15°32' W 061°55'810.7
2018-Mar-05 09:14N 15°40' W 061°59'310.8
2018-Mar-05 08:59N 15°42' W 062°00'2310.0
2018-Mar-05 06:42N 16°02' W 062°12'2 9.9
2018-Mar-05 06:29N 16°04' W 062°13'5 9.8
2018-Mar-05 05:57N 16°08' W 062°16'5 9.4
2018-Mar-05 05:28N 16°12' W 062°19'4 9.1
2018-Mar-05 05:00N 16°15' W 062°22'5 9.4
2018-Mar-05 04:31N 16°18' W 062°25'510.2
2018-Mar-05 04:00N 16°23' W 062°25'5 9.9
2018-Mar-05 03:30N 16°28' W 062°27'510.0
2018-Mar-05 03:00N 16°32' W 062°30'510.0
2018-Mar-05 02:30N 16°36' W 062°33'510.5
2018-Mar-05 02:01N 16°41' W 062°35'27 9.8
2018-Mar-04 23:16N 17°07' W 062°43'10 8.3
2018-Mar-04 22:04N 17°17' W 062°43'1 0.1
2018-Mar-04 10:23N 17°17' W 062°43'1 3.2
2018-Mar-04 10:00N 17°16' W 062°43'6 9.6
2018-Mar-04 09:21N 17°10' W 062°43'10 8.8
2018-Mar-04 08:15N 17°00' W 062°42'2 8.8
2018-Mar-04 08:00N 16°60' W 062°40'5 9.3
2018-Mar-04 07:30N 17°00' W 062°35'4 8.8
2018-Mar-04 07:00N 17°00' W 062°31'4 8.6
2018-Mar-04 06:30N 17°00' W 062°26'4 9.0
2018-Mar-04 06:00N 17°04' W 062°24'4 8.9
2018-Mar-04 05:30N 17°08' W 062°21'510.0
2018-Mar-04 05:00N 17°12' W 062°18'5 9.2
2018-Mar-04 04:30N 17°16' W 062°16'4 8.2
2018-Mar-04 04:00N 17°16' W 062°11'5 9.3
2018-Mar-04 03:30N 17°14' W 062°07'5 9.4
2018-Mar-04 03:00N 17°12' W 062°02'5 9.5
2018-Mar-04 02:30N 17°10' W 061°58'5 9.6
2018-Mar-04 02:00N 17°08' W 061°53'2 4.6
2018-Mar-04 01:30N 17°07' W 061°51'0 0.3
2018-Mar-04 00:58N 17°07' W 061°51'0 0.0
2018-Mar-04 00:28N 17°07' W 061°51'0 0.0
2018-Mar-03 23:58N 17°07' W 061°51'0 0.0
2018-Mar-03 23:28N 17°07' W 061°51'0 0.0
2018-Mar-03 22:58N 17°07' W 061°51'0 0.0
2018-Mar-03 22:28N 17°07' W 061°51'0 0.0
2018-Mar-03 21:58N 17°07' W 061°51'0 0.0
2018-Mar-03 21:28N 17°07' W 061°51'0 0.0
2018-Mar-03 20:58N 17°07' W 061°51'0 0.0
2018-Mar-03 20:28N 17°07' W 061°51'0 0.0
2018-Mar-03 19:58N 17°07' W 061°51'0 0.0
2018-Mar-03 19:28N 17°07' W 061°51'0 0.0
2018-Mar-03 18:58N 17°07' W 061°51'0 0.0
2018-Mar-03 18:28N 17°07' W 061°51'0 0.0
2018-Mar-03 17:58N 17°07' W 061°51'0 0.0
2018-Mar-03 17:28N 17°07' W 061°51'0 0.0
2018-Mar-03 16:58N 17°07' W 061°51'0 0.0
2018-Mar-03 16:28N 17°07' W 061°51'0 0.0
2018-Mar-03 15:58N 17°07' W 061°51'0 0.0
2018-Mar-03 15:28N 17°07' W 061°51'0 0.0
2018-Mar-03 14:58N 17°07' W 061°51'0 0.0
2018-Mar-03 14:28N 17°07' W 061°51'0 0.0
2018-Mar-03 13:58N 17°07' W 061°51'0 0.0
2018-Mar-03 13:10N 17°07' W 061°51'0 0.0
2018-Mar-03 12:52N 17°07' W 061°51'0 0.0
2018-Mar-03 12:22N 17°07' W 061°51'0 0.0
2018-Mar-03 11:34N 17°07' W 061°51'0 0.0
2018-Mar-03 11:28N 17°07' W 061°51'0 0.0
2018-Mar-03 10:44N 17°07' W 061°51'11 7.3
2018-Mar-03 09:12N 17°12' W 062°02'2 9.8
2018-Mar-03 09:00N 17°13' W 062°03'510.1
2018-Mar-03 08:30N 17°15' W 062°08'510.2
2018-Mar-03 08:00N 17°17' W 062°13'510.4
2018-Mar-03 07:30N 17°19' W 062°18'611.1
2018-Mar-03 07:00N 17°21' W 062°23'510.8
2018-Mar-03 06:30N 17°24' W 062°28'510.4
2018-Mar-03 05:58N 17°26' W 062°33'11 9.6
2018-Mar-03 04:51N 17°31' W 062°44'9 9.8
2018-Mar-03 03:58N 17°34' W 062°52'4 9.2
2018-Mar-03 03:29N 17°36' W 062°56'5 9.4
2018-Mar-03 03:00N 17°38' W 063°00'5 6.7
2018-Mar-03 02:15N 17°36' W 063°05'111 7.7
2018-Mar-02 11:53N 15°46' W 063°09'16 9.0
2018-Mar-02 10:08N 15°45' W 062°53'1 9.1
2018-Mar-02 10:00N 15°45' W 062°52'5 9.1
2018-Mar-02 09:29N 15°45' W 062°47'6 9.2
2018-Mar-02 08:51N 15°46' W 062°41'50 9.1
2018-Mar-02 03:23N 15°46' W 061°49'6 9.7
2018-Mar-02 02:47N 15°46' W 061°43'4 9.2
2018-Mar-02 02:24N 15°45' W 061°39'3 8.9
2018-Mar-02 02:00N 15°45' W 061°36'12 7.2
2018-Mar-02 00:23N 15°56' W 061°30'410.1
2018-Mar-02 00:00N 15°60' W 061°30'5 9.9
2018-Mar-01 23:30N 16°04' W 061°30'5 9.7
2018-Mar-01 23:00N 16°09' W 061°30'4 8.0
2018-Mar-01 22:30N 16°13' W 061°32'1 0.1
2018-Mar-01 12:09N 16°14' W 061°32'0 0.0
2018-Mar-01 11:58N 16°14' W 061°32'0 1.1
2018-Mar-01 11:30N 16°14' W 061°32'3 7.0
2018-Mar-01 11:00N 16°11' W 061°31'27 9.9
2018-Mar-01 08:14N 15°43' W 061°34'510.5
2018-Mar-01 07:45N 15°41' W 061°38'3 9.4
2018-Mar-01 07:23N 15°39' W 061°41'  

Dump ship's entire track history